sensor_id;sensor_type;location;lat;lon;timestamp;pressure;altitude;pressure_sealevel;temperature;humidity
65131;BME280;51709;54.912;8.316;2023-02-24T00:01:56;100900.53;;;5.16;65.31
65131;BME280;51709;54.912;8.316;2023-02-24T00:07:20;100898.81;;;5.21;65.54
65131;BME280;51709;54.912;8.316;2023-02-24T00:12:41;100881.88;;;5.26;65.72
65131;BME280;51709;54.912;8.316;2023-02-24T00:18:03;100881.88;;;5.31;65.86
65131;BME280;51709;54.912;8.316;2023-02-24T00:23:26;100864.06;;;5.31;66.08
65131;BME280;51709;54.912;8.316;2023-02-24T00:28:47;100853.03;;;5.29;66.33
65131;BME280;51709;54.912;8.316;2023-02-24T00:34:09;100839.47;;;5.30;66.50
65131;BME280;51709;54.912;8.316;2023-02-24T00:39:32;100847.09;;;5.36;66.84
65131;BME280;51709;54.912;8.316;2023-02-24T00:44:54;100825.88;;;5.24;67.45
65131;BME280;51709;54.912;8.316;2023-02-24T00:50:15;100803.00;;;5.35;67.51
65131;BME280;51709;54.912;8.316;2023-02-24T00:55:36;100780.94;;;5.40;67.89
65131;BME280;51709;54.912;8.316;2023-02-24T01:00:57;100780.09;;;5.46;67.93
65131;BME280;51709;54.912;8.316;2023-02-24T01:06:19;100780.94;;;5.37;68.67
65131;BME280;51709;54.912;8.316;2023-02-24T01:11:43;100742.75;;;5.34;68.83
65131;BME280;51709;54.912;8.316;2023-02-24T01:17:23;100738.53;;;5.35;69.03
65131;BME280;51709;54.912;8.316;2023-02-24T01:22:47;100742.78;;;5.37;69.19
65131;BME280;51709;54.912;8.316;2023-02-24T01:28:08;100727.50;;;5.42;69.30
65131;BME280;51709;54.912;8.316;2023-02-24T01:33:31;100701.19;;;5.40;69.67
65131;BME280;51709;54.912;8.316;2023-02-24T01:38:59;100707.16;;;5.37;70.06
65131;BME280;51709;54.912;8.316;2023-02-24T01:49:46;100668.09;;;5.40;70.18
65131;BME280;51709;54.912;8.316;2023-02-24T01:55:18;100653.69;;;5.42;70.37
65131;BME280;51709;54.912;8.316;2023-02-24T02:00:39;100631.63;;;5.41;70.55
65131;BME280;51709;54.912;8.316;2023-02-24T02:06:08;100633.34;;;5.39;70.83
65131;BME280;51709;54.912;8.316;2023-02-24T02:11:30;100624.00;;;5.38;71.09
65131;BME280;51709;54.912;8.316;2023-02-24T02:22:59;100591.75;;;5.37;71.56
65131;BME280;51709;54.912;8.316;2023-02-24T02:28:41;100590.91;;;5.41;71.43
65131;BME280;51709;54.912;8.316;2023-02-24T02:40:23;100567.13;;;5.47;71.33
65131;BME280;51709;54.912;8.316;2023-02-24T02:45:56;100536.59;;;5.47;71.44
65131;BME280;51709;54.912;8.316;2023-02-24T02:51:20;100525.59;;;5.46;71.56
65131;BME280;51709;54.912;8.316;2023-02-24T02:56:48;100502.69;;;5.46;71.54
65131;BME280;51709;54.912;8.316;2023-02-24T03:02:12;100490.78;;;5.44;71.90
65131;BME280;51709;54.912;8.316;2023-02-24T03:07:36;100481.47;;;5.41;72.09
65131;BME280;51709;54.912;8.316;2023-02-24T03:13:02;100469.59;;;5.42;72.33
65131;BME280;51709;54.912;8.316;2023-02-24T03:18:30;100450.97;;;5.38;72.71
65131;BME280;51709;54.912;8.316;2023-02-24T03:23:51;100436.53;;;5.37;72.93
65131;BME280;51709;54.912;8.316;2023-02-24T03:29:49;100398.44;;;5.31;73.60
65131;BME280;51709;54.912;8.316;2023-02-24T03:35:16;100384.03;;;5.27;73.44
65131;BME280;51709;54.912;8.316;2023-02-24T03:40:40;100384.94;;;5.19;74.00
65131;BME280;51709;54.912;8.316;2023-02-24T03:46:06;100372.22;;;5.13;74.42
65131;BME280;51709;54.912;8.316;2023-02-24T03:51:27;100345.09;;;5.12;74.64
65131;BME280;51709;54.912;8.316;2023-02-24T03:56:58;100324.81;;;5.06;74.95
65131;BME280;51709;54.912;8.316;2023-02-24T04:02:29;100271.47;;;5.00;75.50
65131;BME280;51709;54.912;8.316;2023-02-24T04:07:59;100282.53;;;4.91;76.00
65131;BME280;51709;54.912;8.316;2023-02-24T04:13:40;100264.72;;;4.89;76.42
65131;BME280;51709;54.912;8.316;2023-02-24T04:19:13;100233.41;;;4.84;76.95
65131;BME280;51709;54.912;8.316;2023-02-24T04:24:39;100268.16;;;4.85;77.24
65131;BME280;51709;54.912;8.316;2023-02-24T04:30:02;100235.06;;;4.88;77.41
65131;BME280;51709;54.912;8.316;2023-02-24T04:35:25;100205.41;;;4.89;77.71
65131;BME280;51709;54.912;8.316;2023-02-24T04:40:47;100196.13;;;4.83;78.12
65131;BME280;51709;54.912;8.316;2023-02-24T04:46:09;100207.25;;;4.70;78.64
65131;BME280;51709;54.912;8.316;2023-02-24T04:51:29;100185.25;;;4.67;78.95
65131;BME280;51709;54.912;8.316;2023-02-24T04:56:52;100169.16;;;4.65;79.10
65131;BME280;51709;54.912;8.316;2023-02-24T05:02:13;100142.06;;;4.62;79.72
65131;BME280;51709;54.912;8.316;2023-02-24T05:07:39;100133.69;;;4.50;80.37
65131;BME280;51709;54.912;8.316;2023-02-24T05:12:59;100107.47;;;4.46;81.15
65131;BME280;51709;54.912;8.316;2023-02-24T05:18:22;100051.53;;;4.47;81.40
65131;BME280;51709;54.912;8.316;2023-02-24T05:23:45;100053.25;;;4.50;81.58
65131;BME280;51709;54.912;8.316;2023-02-24T05:29:06;100040.47;;;4.58;81.57
65131;BME280;51709;54.912;8.316;2023-02-24T05:34:29;100021.72;;;4.68;81.61
65131;BME280;51709;54.912;8.316;2023-02-24T05:39:54;99992.88;;;4.74;81.68
65131;BME280;51709;54.912;8.316;2023-02-24T05:45:15;100000.25;;;4.96;81.11
65131;BME280;51709;54.912;8.316;2023-02-24T05:50:35;99988.31;;;5.02;81.20
65131;BME280;51709;54.912;8.316;2023-02-24T05:56:01;99973.84;;;5.06;81.53
65131;BME280;51709;54.912;8.316;2023-02-24T06:01:25;99968.69;;;5.11;81.74
65131;BME280;51709;54.912;8.316;2023-02-24T06:06:49;99997.41;;;5.19;82.04
65131;BME280;51709;54.912;8.316;2023-02-24T06:12:11;99958.34;;;5.26;82.24
65131;BME280;51709;54.912;8.316;2023-02-24T06:17:34;99950.63;;;5.31;82.39
65131;BME280;51709;54.912;8.316;2023-02-24T06:22:55;99954.84;;;5.33;82.58
65131;BME280;51709;54.912;8.316;2023-02-24T06:28:18;99934.38;;;5.41;82.53
65131;BME280;51709;54.912;8.316;2023-02-24T06:33:40;99932.59;;;5.48;82.68
65131;BME280;51709;54.912;8.316;2023-02-24T06:39:01;99935.84;;;5.58;82.47
65131;BME280;51709;54.912;8.316;2023-02-24T06:44:21;99944.25;;;5.63;82.20
65131;BME280;51709;54.912;8.316;2023-02-24T06:49:43;99943.31;;;5.68;82.23
65131;BME280;51709;54.912;8.316;2023-02-24T06:55:04;99936.50;;;5.70;82.28
65131;BME280;51709;54.912;8.316;2023-02-24T07:00:27;99937.38;;;5.66;82.35
65131;BME280;51709;54.912;8.316;2023-02-24T07:06:00;99928.88;;;5.69;82.03
65131;BME280;51709;54.912;8.316;2023-02-24T07:11:42;99916.16;;;5.67;82.36
65131;BME280;51709;54.912;8.316;2023-02-24T07:17:07;99915.31;;;5.68;82.17
65131;BME280;51709;54.912;8.316;2023-02-24T07:22:29;99922.03;;;5.71;82.38
65131;BME280;51709;54.912;8.316;2023-02-24T07:27:51;99918.56;;;5.78;82.18
65131;BME280;51709;54.912;8.316;2023-02-24T07:33:12;99911.41;;;5.99;81.99
65131;BME280;51709;54.912;8.316;2023-02-24T07:38:38;99910.41;;;6.09;82.17
65131;BME280;51709;54.912;8.316;2023-02-24T07:44:05;99919.47;;;6.24;81.97
65131;BME280;51709;54.912;8.316;2023-02-24T07:49:29;99922.97;;;6.20;82.13
65131;BME280;51709;54.912;8.316;2023-02-24T07:54:52;99906.19;;;6.10;82.57
65131;BME280;51709;54.912;8.316;2023-02-24T08:00:16;99901.22;;;5.99;82.88
65131;BME280;51709;54.912;8.316;2023-02-24T08:05:40;99892.66;;;6.05;82.39
65131;BME280;51709;54.912;8.316;2023-02-24T08:11:04;99872.19;;;6.09;82.33
65131;BME280;51709;54.912;8.316;2023-02-24T08:16:33;99890.97;;;6.05;82.46
65131;BME280;51709;54.912;8.316;2023-02-24T08:22:01;99888.84;;;6.27;82.39
65131;BME280;51709;54.912;8.316;2023-02-24T08:28:05;99879.34;;;6.37;82.22
65131;BME280;51709;54.912;8.316;2023-02-24T08:33:29;99884.53;;;6.31;82.45
65131;BME280;51709;54.912;8.316;2023-02-24T08:38:55;99868.25;;;6.40;82.31
65131;BME280;51709;54.912;8.316;2023-02-24T08:44:19;99865.41;;;6.54;82.19
65131;BME280;51709;54.912;8.316;2023-02-24T08:49:41;99865.97;;;6.68;81.75
65131;BME280;51709;54.912;8.316;2023-02-24T08:55:02;99860.00;;;6.69;81.80
65131;BME280;51709;54.912;8.316;2023-02-24T09:00:25;99855.06;;;6.63;81.97
65131;BME280;51709;54.912;8.316;2023-02-24T09:06:07;99846.13;;;6.83;81.72
65131;BME280;51709;54.912;8.316;2023-02-24T09:11:28;99838.53;;;6.81;81.75
65131;BME280;51709;54.912;8.316;2023-02-24T09:16:49;99831.38;;;6.97;81.90
65131;BME280;51709;54.912;8.316;2023-02-24T09:22:24;99827.97;;;7.34;80.87
65131;BME280;51709;54.912;8.316;2023-02-24T09:28:13;99832.09;;;7.40;80.73
65131;BME280;51709;54.912;8.316;2023-02-24T09:33:38;99822.66;;;7.42;80.67
65131;BME280;51709;54.912;8.316;2023-02-24T09:38:59;99814.34;;;7.34;80.83
65131;BME280;51709;54.912;8.316;2023-02-24T09:44:24;99805.19;;;7.27;81.00
65131;BME280;51709;54.912;8.316;2023-02-24T09:49:53;99810.22;;;7.28;80.99
65131;BME280;51709;54.912;8.316;2023-02-24T10:12:23;99788.88;;;6.94;81.19
65131;BME280;51709;54.912;8.316;2023-02-24T10:17:57;99775.53;;;7.21;80.49
65131;BME280;51709;54.912;8.316;2023-02-24T10:29:14;99754.00;;;7.64;79.21
65131;BME280;51709;54.912;8.316;2023-02-24T10:34:42;99751.28;;;8.02;78.61
65131;BME280;51709;54.912;8.316;2023-02-24T10:40:05;99754.28;;;8.48;77.54
65131;BME280;51709;54.912;8.316;2023-02-24T10:45:29;99741.53;;;8.75;77.21
65131;BME280;51709;54.912;8.316;2023-02-24T10:50:55;99728.09;;;9.71;75.50
65131;BME280;51709;54.912;8.316;2023-02-24T10:56:27;99736.91;;;13.49;62.62
65131;BME280;51709;54.912;8.316;2023-02-24T11:07:44;99710.41;;;12.21;66.34
65131;BME280;51709;54.912;8.316;2023-02-24T11:13:15;99718.88;;;13.49;62.26
65131;BME280;51709;54.912;8.316;2023-02-24T11:18:55;99714.94;;;11.36;65.92
65131;BME280;51709;54.912;8.316;2023-02-24T11:24:17;99721.97;;;9.26;71.64
65131;BME280;51709;54.912;8.316;2023-02-24T11:35:28;99690.78;;;9.64;70.01
65131;BME280;51709;54.912;8.316;2023-02-24T11:40:58;99676.56;;;9.06;70.63
65131;BME280;51709;54.912;8.316;2023-02-24T11:46:32;99675.72;;;8.23;72.81
65131;BME280;51709;54.912;8.316;2023-02-24T11:51:55;99680.69;;;8.28;72.59
65131;BME280;51709;54.912;8.316;2023-02-24T11:57:22;99671.22;;;8.60;71.62
65131;BME280;51709;54.912;8.316;2023-02-24T12:02:53;99664.34;;;10.76;67.39
65131;BME280;51709;54.912;8.316;2023-02-24T12:13:53;99640.47;;;13.02;62.31
65131;BME280;51709;54.912;8.316;2023-02-24T12:19:32;99641.75;;;20.50;45.05
65131;BME280;51709;54.912;8.316;2023-02-24T12:24:54;99659.69;;;23.99;38.98
65131;BME280;51709;54.912;8.316;2023-02-24T12:36:04;99643.34;;;24.24;39.62
65131;BME280;51709;54.912;8.316;2023-02-24T12:41:54;99626.41;;;19.24;49.55
65131;BME280;51709;54.912;8.316;2023-02-24T12:58:25;99612.84;;;22.36;40.13
65131;BME280;51709;54.912;8.316;2023-02-24T13:04:06;99604.31;;;19.97;44.45
65131;BME280;51709;54.912;8.316;2023-02-24T13:09:39;99616.84;;;23.07;38.12
65131;BME280;51709;54.912;8.316;2023-02-24T13:15:06;99621.06;;;24.20;35.66
65131;BME280;51709;54.912;8.316;2023-02-24T13:20:35;99609.56;;;22.53;37.59
65131;BME280;51709;54.912;8.316;2023-02-24T13:25:57;99590.72;;;22.10;38.30
65131;BME280;51709;54.912;8.316;2023-02-24T13:31:17;99588.31;;;18.42;44.47
65131;BME280;51709;54.912;8.316;2023-02-24T13:36:45;99587.59;;;19.44;41.89
65131;BME280;51709;54.912;8.316;2023-02-24T13:59:26;99580.31;;;12.52;53.45
65131;BME280;51709;54.912;8.316;2023-02-24T14:04:54;99569.59;;;10.92;57.30
65131;BME280;51709;54.912;8.316;2023-02-24T14:10:19;99574.94;;;10.01;58.98
65131;BME280;51709;54.912;8.316;2023-02-24T14:15:42;99564.38;;;9.65;59.54
65131;BME280;51709;54.912;8.316;2023-02-24T14:21:05;99569.88;;;9.54;59.28
65131;BME280;51709;54.912;8.316;2023-02-24T14:26:27;99547.91;;;9.24;59.82
65131;BME280;51709;54.912;8.316;2023-02-24T14:31:51;99562.19;;;8.83;60.46
65131;BME280;51709;54.912;8.316;2023-02-24T14:37:12;99549.31;;;8.33;61.36
65131;BME280;51709;54.912;8.316;2023-02-24T14:42:45;99576.81;;;7.98;62.04
65131;BME280;51709;54.912;8.316;2023-02-24T14:48:29;99570.63;;;7.77;62.52
65131;BME280;51709;54.912;8.316;2023-02-24T14:53:53;99538.66;;;7.65;62.29
65131;BME280;51709;54.912;8.316;2023-02-24T14:59:27;99552.84;;;7.46;62.60
65131;BME280;51709;54.912;8.316;2023-02-24T15:04:53;99556.16;;;7.18;62.97
65131;BME280;51709;54.912;8.316;2023-02-24T15:10:22;99547.03;;;7.11;63.17
65131;BME280;51709;54.912;8.316;2023-02-24T15:15:44;99569.13;;;7.10;63.20
65131;BME280;51709;54.912;8.316;2023-02-24T15:21:06;99573.41;;;7.09;63.40
65131;BME280;51709;54.912;8.316;2023-02-24T15:26:31;99553.78;;;7.12;63.44
65131;BME280;51709;54.912;8.316;2023-02-24T15:31:57;99545.72;;;6.96;63.99
65131;BME280;51709;54.912;8.316;2023-02-24T15:37:28;99566.28;;;6.89;64.19
65131;BME280;51709;54.912;8.316;2023-02-24T15:42:59;99565.97;;;6.69;64.68
65131;BME280;51709;54.912;8.316;2023-02-24T15:48:26;99552.75;;;6.53;65.04
65131;BME280;51709;54.912;8.316;2023-02-24T15:53:50;99575.81;;;6.48;65.11
65131;BME280;51709;54.912;8.316;2023-02-24T15:59:15;99567.34;;;6.47;65.16
65131;BME280;51709;54.912;8.316;2023-02-24T16:04:36;99565.78;;;6.42;65.42
65131;BME280;51709;54.912;8.316;2023-02-24T16:09:58;99563.47;;;6.32;65.69
65131;BME280;51709;54.912;8.316;2023-02-24T16:15:26;99566.16;;;6.26;65.99
65131;BME280;51709;54.912;8.316;2023-02-24T16:20:48;99574.81;;;6.19;66.19
65131;BME280;51709;54.912;8.316;2023-02-24T16:26:18;99586.91;;;6.09;66.65
65131;BME280;51709;54.912;8.316;2023-02-24T16:31:40;99599.03;;;5.98;67.13
65131;BME280;51709;54.912;8.316;2023-02-24T16:37:01;99600.75;;;5.97;67.12
65131;BME280;51709;54.912;8.316;2023-02-24T16:42:22;99600.84;;;5.93;67.38
65131;BME280;51709;54.912;8.316;2023-02-24T16:47:43;99607.84;;;5.83;67.59
65131;BME280;51709;54.912;8.316;2023-02-24T16:53:06;99617.31;;;5.76;67.82
65131;BME280;51709;54.912;8.316;2023-02-24T16:58:27;99613.25;;;5.67;68.06
65131;BME280;51709;54.912;8.316;2023-02-24T17:03:50;99612.31;;;5.71;68.15
65131;BME280;51709;54.912;8.316;2023-02-24T17:09:12;99634.97;;;5.84;67.90
65131;BME280;51709;54.912;8.316;2023-02-24T17:14:34;99623.03;;;5.88;67.92
65131;BME280;51709;54.912;8.316;2023-02-24T17:19:55;99649.34;;;5.86;68.22
65131;BME280;51709;54.912;8.316;2023-02-24T17:25:22;99639.06;;;5.93;68.13
65131;BME280;51709;54.912;8.316;2023-02-24T17:30:43;99643.28;;;5.94;68.20
65131;BME280;51709;54.912;8.316;2023-02-24T17:36:04;99650.91;;;5.94;68.32
65131;BME280;51709;54.912;8.316;2023-02-24T17:41:25;99660.19;;;5.96;68.40
65131;BME280;51709;54.912;8.316;2023-02-24T17:46:45;99663.53;;;6.00;68.49
65131;BME280;51709;54.912;8.316;2023-02-24T17:52:06;99641.66;;;5.90;68.49
65131;BME280;51709;54.912;8.316;2023-02-24T17:57:27;99660.19;;;5.95;67.97
65131;BME280;51709;54.912;8.316;2023-02-24T18:02:48;99652.06;;;5.79;68.65
65131;BME280;51709;54.912;8.316;2023-02-24T18:08:09;99650.47;;;5.75;68.95
65131;BME280;51709;54.912;8.316;2023-02-24T18:13:33;99673.53;;;5.65;68.80
65131;BME280;51709;54.912;8.316;2023-02-24T18:18:55;99673.75;;;5.54;69.18
65131;BME280;51709;54.912;8.316;2023-02-24T18:24:15;99684.13;;;5.44;69.30
65131;BME280;51709;54.912;8.316;2023-02-24T18:29:36;99703.75;;;5.37;69.42
65131;BME280;51709;54.912;8.316;2023-02-24T18:34:56;99717.31;;;5.37;69.32
65131;BME280;51709;54.912;8.316;2023-02-24T18:40:18;99725.59;;;5.49;68.90
65131;BME280;51709;54.912;8.316;2023-02-24T18:45:38;99722.28;;;5.44;68.90
65131;BME280;51709;54.912;8.316;2023-02-24T18:51:00;99738.34;;;5.47;68.92
65131;BME280;51709;54.912;8.316;2023-02-24T18:56:24;99733.84;;;5.62;68.24
65131;BME280;51709;54.912;8.316;2023-02-24T19:01:46;99730.59;;;5.53;68.60
65131;BME280;51709;54.912;8.316;2023-02-24T19:07:06;99747.56;;;5.54;68.62
65131;BME280;51709;54.912;8.316;2023-02-24T19:12:27;99767.91;;;5.54;68.61
65131;BME280;51709;54.912;8.316;2023-02-24T19:17:48;99748.25;;;5.63;68.53
65131;BME280;51709;54.912;8.316;2023-02-24T19:23:09;99773.75;;;5.61;68.62
65131;BME280;51709;54.912;8.316;2023-02-24T19:28:29;99777.97;;;5.61;68.55
65131;BME280;51709;54.912;8.316;2023-02-24T19:33:58;99779.69;;;5.59;68.61
65131;BME280;51709;54.912;8.316;2023-02-24T19:39:20;99789.22;;;5.49;68.82
65131;BME280;51709;54.912;8.316;2023-02-24T19:44:40;99792.78;;;5.38;69.15
65131;BME280;51709;54.912;8.316;2023-02-24T19:50:01;99813.22;;;5.32;69.11
65131;BME280;51709;54.912;8.316;2023-02-24T19:55:21;99815.03;;;5.27;69.05
65131;BME280;51709;54.912;8.316;2023-02-24T20:00:42;99823.59;;;5.20;69.23
65131;BME280;51709;54.912;8.316;2023-02-24T20:06:03;99826.22;;;5.17;69.29
65131;BME280;51709;54.912;8.316;2023-02-24T20:11:23;99835.56;;;5.15;69.26
65131;BME280;51709;54.912;8.316;2023-02-24T20:16:45;99856.78;;;5.11;69.19
65131;BME280;51709;54.912;8.316;2023-02-24T20:22:06;99859.31;;;5.14;69.04
65131;BME280;51709;54.912;8.316;2023-02-24T20:27:26;99860.25;;;5.06;68.99
65131;BME280;51709;54.912;8.316;2023-02-24T20:32:47;99848.47;;;4.99;69.26
65131;BME280;51709;54.912;8.316;2023-02-24T20:38:09;99863.78;;;4.98;69.22
65131;BME280;51709;54.912;8.316;2023-02-24T20:43:30;99871.34;;;5.02;68.98
65131;BME280;51709;54.912;8.316;2023-02-24T20:48:55;99891.50;;;5.15;68.37
65131;BME280;51709;54.912;8.316;2023-02-24T20:54:16;99892.22;;;5.23;68.14
65131;BME280;51709;54.912;8.316;2023-02-24T20:59:37;99905.03;;;5.18;68.02
65131;BME280;51709;54.912;8.316;2023-02-24T21:05:01;99921.41;;;4.97;68.75
65131;BME280;51709;54.912;8.316;2023-02-24T21:10:21;99929.88;;;4.98;68.58
65131;BME280;51709;54.912;8.316;2023-02-24T21:15:53;99931.63;;;4.92;68.63
65131;BME280;51709;54.912;8.316;2023-02-24T21:21:14;99935.97;;;4.83;68.88
65131;BME280;51709;54.912;8.316;2023-02-24T21:26:36;99940.28;;;4.77;68.90
65131;BME280;51709;54.912;8.316;2023-02-24T21:31:56;99945.41;;;4.76;68.81
65131;BME280;51709;54.912;8.316;2023-02-24T21:37:17;99945.38;;;4.77;68.70
65131;BME280;51709;54.912;8.316;2023-02-24T21:42:38;99933.50;;;4.78;68.65
65131;BME280;51709;54.912;8.316;2023-02-24T21:48:02;99938.63;;;4.73;68.74
65131;BME280;51709;54.912;8.316;2023-02-24T21:53:23;99946.22;;;4.76;68.53
65131;BME280;51709;54.912;8.316;2023-02-24T21:59:07;99958.97;;;4.75;68.61
65131;BME280;51709;54.912;8.316;2023-02-24T22:04:28;99961.44;;;4.78;68.59
65131;BME280;51709;54.912;8.316;2023-02-24T22:09:52;99975.91;;;4.76;68.56
65131;BME280;51709;54.912;8.316;2023-02-24T22:15:39;99970.78;;;4.77;68.46
65131;BME280;51709;54.912;8.316;2023-02-24T22:21:05;99970.00;;;4.74;68.40
65131;BME280;51709;54.912;8.316;2023-02-24T22:26:27;99982.66;;;4.77;68.51
65131;BME280;51709;54.912;8.316;2023-02-24T22:31:49;99972.50;;;4.75;68.47
65131;BME280;51709;54.912;8.316;2023-02-24T22:37:12;99990.38;;;4.68;68.57
65131;BME280;51709;54.912;8.316;2023-02-24T22:42:36;99992.16;;;4.59;68.71
65131;BME280;51709;54.912;8.316;2023-02-24T22:48:01;99987.94;;;4.58;68.82
65131;BME280;51709;54.912;8.316;2023-02-24T22:53:27;99985.41;;;4.57;68.66
65131;BME280;51709;54.912;8.316;2023-02-24T22:58:49;100004.88;;;4.56;68.66
65131;BME280;51709;54.912;8.316;2023-02-24T23:04:15;100012.50;;;4.58;68.54
65131;BME280;51709;54.912;8.316;2023-02-24T23:09:37;100020.13;;;4.58;68.62
65131;BME280;51709;54.912;8.316;2023-02-24T23:14:57;100031.19;;;4.54;68.53
65131;BME280;51709;54.912;8.316;2023-02-24T23:20:19;100027.03;;;4.43;68.87
65131;BME280;51709;54.912;8.316;2023-02-24T23:25:39;100045.78;;;4.30;68.96
65131;BME280;51709;54.912;8.316;2023-02-24T23:31:01;100053.44;;;4.25;69.02
65131;BME280;51709;54.912;8.316;2023-02-24T23:36:23;100062.81;;;4.19;69.21
65131;BME280;51709;54.912;8.316;2023-02-24T23:41:45;100071.28;;;4.14;69.22
65131;BME280;51709;54.912;8.316;2023-02-24T23:47:05;100084.91;;;4.06;69.21
65131;BME280;51709;54.912;8.316;2023-02-24T23:52:26;100090.00;;;3.99;69.37
65131;BME280;51709;54.912;8.316;2023-02-24T23:57:47;100099.31;;;3.97;69.35
